createdAt,value
2022-08-19T00:01:11.463Z,23.70
2022-08-19T00:06:14.607Z,23.70
2022-08-19T00:11:25.686Z,23.80
2022-08-19T00:16:28.471Z,23.90
2022-08-19T00:21:31.190Z,23.90
2022-08-19T00:26:34.211Z,23.90
2022-08-19T00:31:36.762Z,24.00
2022-08-19T00:36:39.448Z,23.80
2022-08-19T00:41:42.808Z,24.10
2022-08-19T00:46:55.415Z,24.10
2022-08-19T00:52:09.438Z,24.10
2022-08-19T00:57:16.235Z,23.90
2022-08-19T01:02:18.721Z,24.10
2022-08-19T01:07:21.108Z,24.20
2022-08-19T01:12:24.029Z,24.20
2022-08-19T01:17:26.386Z,24.20
2022-08-19T01:22:34.001Z,24.20
2022-08-19T01:27:42.181Z,24.20
2022-08-19T01:32:45.925Z,24.20
2022-08-19T01:37:49.849Z,24.20
2022-08-19T01:42:53.589Z,24.00
2022-08-19T01:48:02.252Z,24.20
2022-08-19T01:53:08.030Z,24.30
2022-08-19T01:58:23.666Z,24.60
2022-08-19T02:03:26.056Z,24.30
2022-08-19T02:08:28.571Z,24.30
2022-08-19T02:13:30.701Z,23.90
2022-08-19T02:18:33.774Z,24.30
2022-08-19T02:23:35.927Z,24.30
2022-08-19T02:28:38.096Z,24.20
2022-08-19T02:33:40.338Z,24.50
2022-08-19T02:38:43.456Z,24.00
2022-08-19T02:44:26.681Z,24.20
2022-08-19T02:49:12.538Z,24.10
2022-08-19T02:54:15.853Z,24.20
2022-08-19T02:59:18.160Z,24.20
2022-08-19T03:04:25.350Z,24.20
2022-08-19T03:09:27.404Z,24.30
2022-08-19T03:14:32.490Z,24.20
2022-08-19T03:19:35.478Z,24.40
2022-08-19T03:24:38.514Z,24.50
2022-08-19T03:29:43.237Z,24.30
2022-08-19T03:34:47.415Z,24.20
2022-08-19T03:39:49.693Z,24.40
2022-08-19T03:44:51.891Z,24.20
2022-08-19T03:49:54.153Z,24.30
2022-08-19T03:54:56.612Z,24.20
2022-08-19T04:00:13.135Z,24.30
2022-08-19T04:05:16.291Z,24.10
2022-08-19T04:10:18.560Z,24.80
2022-08-19T04:15:21.695Z,24.20
2022-08-19T04:20:23.831Z,24.20
2022-08-19T04:25:25.956Z,24.20
2022-08-19T04:30:28.112Z,24.20
2022-08-19T04:35:36.699Z,24.20
2022-08-19T04:41:05.436Z,24.20
2022-08-19T04:46:39.573Z,24.30
2022-08-19T04:51:37.823Z,24.10
2022-08-19T04:56:40.997Z,24.00
2022-08-19T05:01:44.378Z,24.40
2022-08-19T05:06:48.806Z,24.10
2022-08-19T05:11:53.754Z,24.10
2022-08-19T05:17:11.463Z,24.30
2022-08-19T05:22:33.839Z,24.40
2022-08-19T05:27:36.068Z,24.30
2022-08-19T05:32:39.345Z,24.40
2022-08-19T05:37:41.800Z,24.40
2022-08-19T05:42:43.947Z,24.40
2022-08-19T05:47:46.430Z,24.50
2022-08-19T05:52:51.063Z,24.40
2022-08-19T05:57:53.224Z,24.50
2022-08-19T06:02:57.467Z,24.80
2022-08-19T06:07:59.700Z,24.70
2022-08-19T06:13:01.906Z,25.00
2022-08-19T06:18:04.441Z,24.90
2022-08-19T06:23:06.649Z,25.00
2022-08-19T06:28:15.018Z,25.10
2022-08-19T06:33:17.770Z,25.30
2022-08-19T06:38:23.410Z,25.40
2022-08-19T06:43:29.099Z,25.50
2022-08-19T06:48:34.676Z,25.50
2022-08-19T06:53:40.552Z,25.70
2022-08-19T06:58:43.167Z,25.60
2022-08-19T07:03:45.279Z,25.80
2022-08-19T07:08:49.386Z,25.80
2022-08-19T07:13:52.084Z,25.90
2022-08-19T07:19:00.311Z,26.00
2022-08-19T07:24:13.840Z,26.00
2022-08-19T07:29:17.377Z,26.20
2022-08-19T07:34:20.713Z,26.30
2022-08-19T07:39:24.707Z,26.40
2022-08-19T07:44:27.778Z,26.50
2022-08-19T07:49:30.058Z,26.50
2022-08-19T07:54:35.097Z,26.70
2022-08-19T07:59:37.591Z,26.90
2022-08-19T08:04:58.236Z,27.10
2022-08-19T08:10:03.268Z,27.30
2022-08-19T08:15:12.430Z,27.40
2022-08-19T08:20:15.614Z,27.50
2022-08-19T08:25:21.393Z,27.70
2022-08-19T08:30:25.634Z,27.90
2022-08-19T08:35:34.367Z,28.00
2022-08-19T08:40:52.256Z,28.20
2022-08-19T08:46:30.569Z,28.40
2022-08-19T08:51:59.586Z,28.60
2022-08-19T08:57:08.413Z,28.30
2022-08-19T09:02:10.693Z,29.00
2022-08-19T09:07:36.101Z,29.10
2022-08-19T09:13:20.973Z,29.30
2022-08-19T09:18:24.051Z,29.40
2022-08-19T09:23:27.027Z,29.30
2022-08-19T09:28:32.450Z,29.40
2022-08-19T09:33:34.651Z,29.40
2022-08-19T09:38:43.653Z,29.40
2022-08-19T09:43:50.089Z,29.50
2022-08-19T09:48:54.347Z,29.70
2022-08-19T09:54:01.286Z,29.60
2022-08-19T09:59:06.925Z,29.70
2022-08-19T10:04:14.640Z,29.80
2022-08-19T10:09:26.367Z,29.90
2022-08-19T10:14:36.865Z,29.90
2022-08-19T10:19:41.509Z,30.10
2022-08-19T10:24:57.543Z,30.20
2022-08-19T10:29:59.763Z,30.30
2022-08-19T10:35:08.822Z,30.40
2022-08-19T10:40:12.297Z,30.40
2022-08-19T10:45:16.930Z,30.50
2022-08-19T10:50:38.411Z,30.80
2022-08-19T10:55:59.921Z,30.80
2022-08-19T11:01:02.186Z,30.90
2022-08-19T11:06:10.277Z,31.10
2022-08-19T11:11:13.481Z,31.30
2022-08-19T11:16:19.674Z,31.50
2022-08-19T11:21:24.378Z,31.80
2022-08-19T11:26:30.308Z,32.00
2022-08-19T11:31:36.671Z,32.10
2022-08-19T11:36:41.952Z,32.20
2022-08-19T11:41:44.417Z,32.40
2022-08-19T11:46:47.447Z,32.60
2022-08-19T11:51:51.579Z,32.90
2022-08-19T11:56:57.190Z,33.10
2022-08-19T12:02:00.063Z,33.40
2022-08-19T12:07:02.749Z,33.60
2022-08-19T12:12:05.641Z,33.90
2022-08-19T12:17:09.701Z,34.10
2022-08-19T12:22:11.798Z,34.40
2022-08-19T12:27:14.112Z,34.60
2022-08-19T12:32:34.737Z,34.80
2022-08-19T12:37:37.012Z,35.10
2022-08-19T12:42:43.194Z,35.20
2022-08-19T12:47:47.119Z,35.50
2022-08-19T12:52:50.044Z,35.50
2022-08-19T12:57:52.572Z,35.80
2022-08-19T13:02:55.283Z,35.60
2022-08-19T13:08:00.605Z,35.50
2022-08-19T13:13:08.738Z,35.30
2022-08-19T13:18:12.031Z,35.20
2022-08-19T13:23:14.219Z,35.20
2022-08-19T13:28:16.506Z,35.30
2022-08-19T13:33:19.553Z,35.60
2022-08-19T13:38:22.950Z,35.80
2022-08-19T13:43:27.775Z,35.80
2022-08-19T13:48:29.909Z,35.50
2022-08-19T13:53:32.111Z,35.40
2022-08-19T13:58:34.643Z,35.10
2022-08-19T14:03:38.403Z,35.00
2022-08-19T14:08:46.024Z,35.00
2022-08-19T14:13:48.644Z,34.90
2022-08-19T14:18:51.330Z,34.90
2022-08-19T14:23:54.264Z,34.90
2022-08-19T14:28:58.179Z,35.30
2022-08-19T14:34:00.354Z,35.50
2022-08-19T14:39:02.624Z,35.50
2022-08-19T14:44:04.802Z,35.30
2022-08-19T14:49:09.389Z,35.40
2022-08-19T14:54:11.927Z,35.60
2022-08-19T14:59:14.385Z,36.10
2022-08-19T15:04:16.735Z,36.20
2022-08-19T15:09:18.913Z,36.10
2022-08-19T15:14:21.781Z,36.00
2022-08-19T15:19:24.742Z,35.70
2022-08-19T15:24:26.917Z,35.50
2022-08-19T15:29:29.231Z,35.50
2022-08-19T15:34:32.431Z,35.50
2022-08-19T15:39:34.808Z,35.90
2022-08-19T15:44:37.017Z,36.20
2022-08-19T15:49:39.504Z,36.30
2022-08-19T15:54:41.821Z,36.20
2022-08-19T16:00:03.355Z,36.00
2022-08-19T16:05:29.143Z,36.00
2022-08-19T16:10:31.386Z,36.40
2022-08-19T16:15:34.061Z,37.20
2022-08-19T16:20:36.320Z,38.00
2022-08-19T16:25:39.339Z,38.60
2022-08-19T16:30:42.812Z,38.70
2022-08-19T16:36:00.397Z,38.30
2022-08-19T16:41:16.474Z,37.70
2022-08-19T16:46:20.371Z,37.20
2022-08-19T16:51:25.239Z,36.30
2022-08-19T16:56:28.872Z,35.80
2022-08-19T17:01:31.321Z,35.30
2022-08-19T17:06:36.430Z,34.80
2022-08-19T17:11:38.607Z,34.30
2022-08-19T17:16:42.414Z,34.00
2022-08-19T17:21:44.637Z,33.80
2022-08-19T17:26:46.949Z,33.60
2022-08-19T17:31:49.164Z,33.30
2022-08-19T17:36:51.565Z,33.10
2022-08-19T17:41:53.826Z,33.00
2022-08-19T17:46:57.965Z,32.80
2022-08-19T17:52:00.551Z,32.70
2022-08-19T17:57:02.748Z,32.50
2022-08-19T18:02:07.883Z,32.40
2022-08-19T18:07:12.360Z,32.30
2022-08-19T18:12:16.376Z,32.10
2022-08-19T18:17:19.388Z,32.00
2022-08-19T18:22:29.486Z,31.80
2022-08-19T18:27:31.699Z,31.60
2022-08-19T18:32:38.040Z,31.40
2022-08-19T18:37:45.358Z,31.20
2022-08-19T18:43:06.062Z,30.90
2022-08-19T18:48:28.244Z,30.60
2022-08-19T18:53:33.296Z,30.40
2022-08-19T18:58:37.573Z,30.20
2022-08-19T19:03:52.796Z,29.40
2022-08-19T19:08:55.608Z,29.60
2022-08-19T19:13:57.879Z,29.40
2022-08-19T19:19:00.031Z,29.10
2022-08-19T19:24:02.837Z,28.90
2022-08-19T19:29:05.087Z,28.60
2022-08-19T19:34:07.172Z,28.40
2022-08-19T19:39:33.994Z,28.20
2022-08-19T19:44:50.996Z,27.90
2022-08-19T19:50:13.732Z,27.70
2022-08-19T19:55:20.506Z,27.50
2022-08-19T20:00:22.763Z,26.80
2022-08-19T20:05:25.905Z,27.00
2022-08-19T20:10:28.532Z,26.80
2022-08-19T20:15:32.075Z,26.40
2022-08-19T20:20:34.981Z,26.40
2022-08-19T20:25:38.471Z,26.20
2022-08-19T20:30:46.454Z,26.00
2022-08-19T20:35:50.326Z,25.80
2022-08-19T20:40:52.835Z,25.50
2022-08-19T20:45:55.744Z,25.60
2022-08-19T20:50:58.324Z,25.00
2022-08-19T20:56:00.478Z,25.20
2022-08-19T21:01:04.111Z,25.20
2022-08-19T21:06:06.989Z,24.80
2022-08-19T21:11:13.851Z,24.70
2022-08-19T21:16:23.051Z,24.80
2022-08-19T21:21:25.247Z,24.60
2022-08-19T21:26:27.794Z,24.50
2022-08-19T21:31:29.858Z,24.40
2022-08-19T21:36:32.059Z,24.30
2022-08-19T21:41:34.242Z,24.20
2022-08-19T21:46:37.477Z,24.10
2022-08-19T21:51:39.754Z,24.00
2022-08-19T21:56:42.458Z,23.90
2022-08-19T22:01:49.669Z,23.80
2022-08-19T22:06:54.300Z,23.50
2022-08-19T22:11:57.777Z,23.70
2022-08-19T22:17:01.080Z,23.70
2022-08-19T22:22:03.390Z,23.50
2022-08-19T22:27:06.817Z,23.30
2022-08-19T22:32:26.987Z,23.50
2022-08-19T22:37:31.858Z,23.40
2022-08-19T22:42:34.043Z,23.40
2022-08-19T22:47:39.344Z,23.00
2022-08-19T22:52:52.059Z,23.30
2022-08-19T22:57:55.748Z,23.00
2022-08-19T23:02:58.387Z,23.30
2022-08-19T23:08:00.513Z,23.10
2022-08-19T23:13:02.782Z,23.00
2022-08-19T23:18:05.439Z,23.10
2022-08-19T23:23:11.007Z,22.90
2022-08-19T23:28:32.540Z,22.90
2022-08-19T23:33:51.291Z,22.80
2022-08-19T23:38:55.740Z,22.90
2022-08-19T23:43:59.618Z,22.50
2022-08-19T23:49:02.621Z,22.70
2022-08-19T23:54:04.855Z,22.60
2022-08-19T23:59:07.027Z,22.60
